sensor_id;sensor_type;location;lat;lon;timestamp;P1;durP1;ratioP1;P2;durP2;ratioP2
3217;SDS011;1621;49.702;8.618;2023-05-23T00:00:00;27.47;;;20.80;;
3217;SDS011;1621;49.702;8.618;2023-05-23T00:02:28;32.90;;;23.60;;
3217;SDS011;1621;49.702;8.618;2023-05-23T00:04:54;33.33;;;22.00;;
3217;SDS011;1621;49.702;8.618;2023-05-23T00:07:22;26.33;;;20.93;;
3217;SDS011;1621;49.702;8.618;2023-05-23T00:09:48;33.40;;;21.33;;
3217;SDS011;1621;49.702;8.618;2023-05-23T00:12:14;33.23;;;24.33;;
3217;SDS011;1621;49.702;8.618;2023-05-23T00:14:41;32.93;;;23.80;;
3217;SDS011;1621;49.702;8.618;2023-05-23T00:17:07;28.03;;;21.60;;
3217;SDS011;1621;49.702;8.618;2023-05-23T00:19:35;27.73;;;21.97;;
3217;SDS011;1621;49.702;8.618;2023-05-23T00:22:02;33.13;;;24.33;;
3217;SDS011;1621;49.702;8.618;2023-05-23T00:24:28;30.33;;;22.00;;
3217;SDS011;1621;49.702;8.618;2023-05-23T00:26:54;31.10;;;23.80;;
3217;SDS011;1621;49.702;8.618;2023-05-23T00:29:22;30.57;;;23.40;;
3217;SDS011;1621;49.702;8.618;2023-05-23T00:31:49;34.67;;;24.40;;
3217;SDS011;1621;49.702;8.618;2023-05-23T00:34:15;33.27;;;24.93;;
3217;SDS011;1621;49.702;8.618;2023-05-23T00:36:43;34.87;;;24.70;;
3217;SDS011;1621;49.702;8.618;2023-05-23T00:39:11;40.10;;;27.33;;
3217;SDS011;1621;49.702;8.618;2023-05-23T00:41:43;35.67;;;27.00;;
3217;SDS011;1621;49.702;8.618;2023-05-23T00:44:09;37.17;;;28.87;;
3217;SDS011;1621;49.702;8.618;2023-05-23T00:46:35;36.50;;;26.33;;
3217;SDS011;1621;49.702;8.618;2023-05-23T00:49:01;40.33;;;28.30;;
3217;SDS011;1621;49.702;8.618;2023-05-23T00:51:28;35.60;;;25.50;;
3217;SDS011;1621;49.702;8.618;2023-05-23T00:53:56;38.13;;;27.70;;
3217;SDS011;1621;49.702;8.618;2023-05-23T00:56:25;36.43;;;27.50;;
3217;SDS011;1621;49.702;8.618;2023-05-23T00:58:51;39.30;;;28.17;;
3217;SDS011;1621;49.702;8.618;2023-05-23T01:01:18;36.43;;;28.50;;
3217;SDS011;1621;49.702;8.618;2023-05-23T01:03:44;36.50;;;28.83;;
3217;SDS011;1621;49.702;8.618;2023-05-23T01:06:12;36.33;;;28.37;;
3217;SDS011;1621;49.702;8.618;2023-05-23T01:08:38;44.53;;;31.37;;
3217;SDS011;1621;49.702;8.618;2023-05-23T01:11:18;46.57;;;35.50;;
3217;SDS011;1621;49.702;8.618;2023-05-23T01:13:50;43.80;;;32.30;;
3217;SDS011;1621;49.702;8.618;2023-05-23T01:16:24;46.47;;;32.70;;
3217;SDS011;1621;49.702;8.618;2023-05-23T01:18:56;44.10;;;33.50;;
3217;SDS011;1621;49.702;8.618;2023-05-23T01:21:24;43.57;;;31.93;;
3217;SDS011;1621;49.702;8.618;2023-05-23T01:24:11;42.87;;;31.07;;
3217;SDS011;1621;49.702;8.618;2023-05-23T01:26:52;42.57;;;32.80;;
3217;SDS011;1621;49.702;8.618;2023-05-23T01:29:27;45.37;;;32.30;;
3217;SDS011;1621;49.702;8.618;2023-05-23T01:31:54;39.43;;;31.63;;
3217;SDS011;1621;49.702;8.618;2023-05-23T01:34:22;43.17;;;32.23;;
3217;SDS011;1621;49.702;8.618;2023-05-23T01:36:49;46.77;;;33.97;;
3217;SDS011;1621;49.702;8.618;2023-05-23T01:39:15;43.00;;;33.17;;
3217;SDS011;1621;49.702;8.618;2023-05-23T01:41:41;44.17;;;32.70;;
3217;SDS011;1621;49.702;8.618;2023-05-23T01:44:08;47.43;;;32.93;;
3217;SDS011;1621;49.702;8.618;2023-05-23T01:46:35;46.00;;;33.90;;
3217;SDS011;1621;49.702;8.618;2023-05-23T01:49:03;43.63;;;34.43;;
3217;SDS011;1621;49.702;8.618;2023-05-23T01:51:31;52.13;;;33.83;;
3217;SDS011;1621;49.702;8.618;2023-05-23T01:53:58;46.10;;;33.23;;
3217;SDS011;1621;49.702;8.618;2023-05-23T01:56:24;41.27;;;32.37;;
3217;SDS011;1621;49.702;8.618;2023-05-23T01:58:52;46.80;;;34.33;;
3217;SDS011;1621;49.702;8.618;2023-05-23T02:01:18;44.53;;;31.90;;
3217;SDS011;1621;49.702;8.618;2023-05-23T02:03:46;49.60;;;33.90;;
3217;SDS011;1621;49.702;8.618;2023-05-23T02:06:12;47.83;;;34.10;;
3217;SDS011;1621;49.702;8.618;2023-05-23T02:08:38;44.30;;;34.67;;
3217;SDS011;1621;49.702;8.618;2023-05-23T02:11:05;49.17;;;35.73;;
3217;SDS011;1621;49.702;8.618;2023-05-23T02:13:32;43.47;;;33.50;;
3217;SDS011;1621;49.702;8.618;2023-05-23T02:15:59;43.67;;;33.47;;
3217;SDS011;1621;49.702;8.618;2023-05-23T02:18:25;44.40;;;33.03;;
3217;SDS011;1621;49.702;8.618;2023-05-23T02:20:54;49.00;;;34.03;;
3217;SDS011;1621;49.702;8.618;2023-05-23T02:23:21;45.57;;;32.77;;
3217;SDS011;1621;49.702;8.618;2023-05-23T02:25:47;45.80;;;33.67;;
3217;SDS011;1621;49.702;8.618;2023-05-23T02:28:13;47.60;;;34.40;;
3217;SDS011;1621;49.702;8.618;2023-05-23T02:30:39;44.93;;;33.37;;
3217;SDS011;1621;49.702;8.618;2023-05-23T02:33:06;47.23;;;32.83;;
3217;SDS011;1621;49.702;8.618;2023-05-23T02:35:32;44.60;;;33.03;;
3217;SDS011;1621;49.702;8.618;2023-05-23T02:38:00;43.67;;;34.17;;
3217;SDS011;1621;49.702;8.618;2023-05-23T02:40:26;42.30;;;31.17;;
3217;SDS011;1621;49.702;8.618;2023-05-23T02:42:52;40.77;;;32.90;;
3217;SDS011;1621;49.702;8.618;2023-05-23T02:45:21;45.90;;;34.60;;
3217;SDS011;1621;49.702;8.618;2023-05-23T02:47:47;46.03;;;32.07;;
3217;SDS011;1621;49.702;8.618;2023-05-23T02:50:13;45.27;;;34.70;;
3217;SDS011;1621;49.702;8.618;2023-05-23T02:52:40;40.90;;;32.87;;
3217;SDS011;1621;49.702;8.618;2023-05-23T02:55:09;45.37;;;33.90;;
3217;SDS011;1621;49.702;8.618;2023-05-23T02:57:35;47.70;;;34.03;;
3217;SDS011;1621;49.702;8.618;2023-05-23T03:00:02;47.27;;;31.97;;
3217;SDS011;1621;49.702;8.618;2023-05-23T03:02:28;49.47;;;36.20;;
3217;SDS011;1621;49.702;8.618;2023-05-23T03:04:55;47.33;;;33.37;;
3217;SDS011;1621;49.702;8.618;2023-05-23T03:07:21;52.07;;;37.03;;
3217;SDS011;1621;49.702;8.618;2023-05-23T03:09:47;52.07;;;35.63;;
3217;SDS011;1621;49.702;8.618;2023-05-23T03:12:15;51.20;;;36.90;;
3217;SDS011;1621;49.702;8.618;2023-05-23T03:14:41;47.37;;;35.40;;
3217;SDS011;1621;49.702;8.618;2023-05-23T03:17:07;47.57;;;35.60;;
3217;SDS011;1621;49.702;8.618;2023-05-23T03:19:33;51.17;;;33.93;;
3217;SDS011;1621;49.702;8.618;2023-05-23T03:22:00;50.60;;;37.60;;
3217;SDS011;1621;49.702;8.618;2023-05-23T03:24:26;51.33;;;36.43;;
3217;SDS011;1621;49.702;8.618;2023-05-23T03:26:52;46.73;;;34.10;;
3217;SDS011;1621;49.702;8.618;2023-05-23T03:29:20;47.03;;;35.23;;
3217;SDS011;1621;49.702;8.618;2023-05-23T03:31:46;44.27;;;34.73;;
3217;SDS011;1621;49.702;8.618;2023-05-23T03:34:12;46.60;;;32.60;;
3217;SDS011;1621;49.702;8.618;2023-05-23T03:36:39;41.20;;;31.30;;
3217;SDS011;1621;49.702;8.618;2023-05-23T03:39:05;39.50;;;31.83;;
3217;SDS011;1621;49.702;8.618;2023-05-23T03:41:31;36.67;;;30.43;;
3217;SDS011;1621;49.702;8.618;2023-05-23T03:43:57;36.80;;;29.50;;
3217;SDS011;1621;49.702;8.618;2023-05-23T03:46:26;34.30;;;27.33;;
3217;SDS011;1621;49.702;8.618;2023-05-23T03:48:53;35.87;;;26.90;;
3217;SDS011;1621;49.702;8.618;2023-05-23T03:51:19;30.10;;;23.63;;
3217;SDS011;1621;49.702;8.618;2023-05-23T03:53:45;29.00;;;21.67;;
3217;SDS011;1621;49.702;8.618;2023-05-23T03:56:12;25.60;;;21.80;;
3217;SDS011;1621;49.702;8.618;2023-05-23T03:58:38;26.33;;;20.53;;
3217;SDS011;1621;49.702;8.618;2023-05-23T04:01:04;30.53;;;20.17;;
3217;SDS011;1621;49.702;8.618;2023-05-23T04:03:32;20.30;;;17.13;;
3217;SDS011;1621;49.702;8.618;2023-05-23T04:05:58;20.83;;;17.70;;
3217;SDS011;1621;49.702;8.618;2023-05-23T04:08:25;23.47;;;18.37;;
3217;SDS011;1621;49.702;8.618;2023-05-23T04:10:51;22.60;;;17.13;;
3217;SDS011;1621;49.702;8.618;2023-05-23T04:13:17;27.87;;;17.77;;
3217;SDS011;1621;49.702;8.618;2023-05-23T04:15:44;19.90;;;16.27;;
3217;SDS011;1621;49.702;8.618;2023-05-23T04:18:11;17.67;;;15.73;;
3217;SDS011;1621;49.702;8.618;2023-05-23T04:20:40;21.23;;;17.47;;
3217;SDS011;1621;49.702;8.618;2023-05-23T04:23:06;20.60;;;16.20;;
3217;SDS011;1621;49.702;8.618;2023-05-23T04:25:32;19.77;;;15.90;;
3217;SDS011;1621;49.702;8.618;2023-05-23T04:27:59;20.03;;;16.57;;
3217;SDS011;1621;49.702;8.618;2023-05-23T04:30:25;21.77;;;16.33;;
3217;SDS011;1621;49.702;8.618;2023-05-23T04:32:54;19.03;;;15.70;;
3217;SDS011;1621;49.702;8.618;2023-05-23T04:35:22;21.63;;;17.40;;
3217;SDS011;1621;49.702;8.618;2023-05-23T04:37:49;18.40;;;15.90;;
3217;SDS011;1621;49.702;8.618;2023-05-23T04:40:20;17.80;;;15.50;;
3217;SDS011;1621;49.702;8.618;2023-05-23T04:42:46;19.70;;;15.00;;
3217;SDS011;1621;49.702;8.618;2023-05-23T04:45:13;17.70;;;15.50;;
3217;SDS011;1621;49.702;8.618;2023-05-23T04:47:40;17.17;;;15.20;;
3217;SDS011;1621;49.702;8.618;2023-05-23T04:50:09;18.87;;;14.63;;
3217;SDS011;1621;49.702;8.618;2023-05-23T04:52:35;19.00;;;15.87;;
3217;SDS011;1621;49.702;8.618;2023-05-23T04:55:03;20.73;;;17.13;;
3217;SDS011;1621;49.702;8.618;2023-05-23T04:57:30;20.27;;;15.67;;
3217;SDS011;1621;49.702;8.618;2023-05-23T04:59:56;20.90;;;16.50;;
3217;SDS011;1621;49.702;8.618;2023-05-23T05:02:23;20.33;;;17.50;;
3217;SDS011;1621;49.702;8.618;2023-05-23T05:04:50;23.20;;;17.40;;
3217;SDS011;1621;49.702;8.618;2023-05-23T05:07:17;19.30;;;16.43;;
3217;SDS011;1621;49.702;8.618;2023-05-23T05:09:43;19.13;;;16.50;;
3217;SDS011;1621;49.702;8.618;2023-05-23T05:12:11;22.30;;;16.57;;
3217;SDS011;1621;49.702;8.618;2023-05-23T05:14:37;21.97;;;17.90;;
3217;SDS011;1621;49.702;8.618;2023-05-23T05:17:03;19.57;;;16.07;;
3217;SDS011;1621;49.702;8.618;2023-05-23T05:19:29;21.07;;;15.67;;
3217;SDS011;1621;49.702;8.618;2023-05-23T05:21:56;19.83;;;16.53;;
3217;SDS011;1621;49.702;8.618;2023-05-23T05:24:24;21.50;;;16.87;;
3217;SDS011;1621;49.702;8.618;2023-05-23T05:26:51;21.27;;;17.90;;
3217;SDS011;1621;49.702;8.618;2023-05-23T05:29:19;19.17;;;16.60;;
3217;SDS011;1621;49.702;8.618;2023-05-23T05:31:45;21.87;;;18.13;;
3217;SDS011;1621;49.702;8.618;2023-05-23T05:34:11;22.80;;;18.37;;
3217;SDS011;1621;49.702;8.618;2023-05-23T05:36:38;21.53;;;17.70;;
3217;SDS011;1621;49.702;8.618;2023-05-23T05:39:09;21.10;;;17.30;;
3217;SDS011;1621;49.702;8.618;2023-05-23T05:41:36;21.07;;;18.10;;
3217;SDS011;1621;49.702;8.618;2023-05-23T05:44:02;23.67;;;18.97;;
3217;SDS011;1621;49.702;8.618;2023-05-23T05:46:29;21.20;;;18.27;;
3217;SDS011;1621;49.702;8.618;2023-05-23T05:48:56;21.20;;;17.70;;
3217;SDS011;1621;49.702;8.618;2023-05-23T05:51:22;23.20;;;18.87;;
3217;SDS011;1621;49.702;8.618;2023-05-23T05:53:48;23.37;;;18.87;;
3217;SDS011;1621;49.702;8.618;2023-05-23T05:56:14;21.37;;;17.60;;
3217;SDS011;1621;49.702;8.618;2023-05-23T05:58:41;24.10;;;18.80;;
3217;SDS011;1621;49.702;8.618;2023-05-23T06:01:07;23.90;;;19.10;;
3217;SDS011;1621;49.702;8.618;2023-05-23T06:03:35;21.53;;;17.97;;
3217;SDS011;1621;49.702;8.618;2023-05-23T06:06:01;19.33;;;17.23;;
3217;SDS011;1621;49.702;8.618;2023-05-23T06:08:27;22.63;;;16.93;;
3217;SDS011;1621;49.702;8.618;2023-05-23T06:10:53;20.80;;;16.57;;
3217;SDS011;1621;49.702;8.618;2023-05-23T06:13:20;19.13;;;15.30;;
3217;SDS011;1621;49.702;8.618;2023-05-23T06:15:46;16.20;;;14.20;;
3217;SDS011;1621;49.702;8.618;2023-05-23T06:18:13;17.10;;;14.27;;
3217;SDS011;1621;49.702;8.618;2023-05-23T06:20:41;15.50;;;13.87;;
3217;SDS011;1621;49.702;8.618;2023-05-23T06:23:07;15.00;;;13.37;;
3217;SDS011;1621;49.702;8.618;2023-05-23T06:25:33;13.73;;;11.77;;
3217;SDS011;1621;49.702;8.618;2023-05-23T06:27:59;14.90;;;12.30;;
3217;SDS011;1621;49.702;8.618;2023-05-23T06:30:26;13.77;;;11.70;;
3217;SDS011;1621;49.702;8.618;2023-05-23T06:32:53;14.27;;;12.50;;
3217;SDS011;1621;49.702;8.618;2023-05-23T06:35:19;14.60;;;12.40;;
3217;SDS011;1621;49.702;8.618;2023-05-23T06:37:47;13.43;;;12.00;;
3217;SDS011;1621;49.702;8.618;2023-05-23T06:40:13;14.27;;;12.30;;
3217;SDS011;1621;49.702;8.618;2023-05-23T06:42:39;13.23;;;11.83;;
3217;SDS011;1621;49.702;8.618;2023-05-23T06:45:06;12.43;;;10.47;;
3217;SDS011;1621;49.702;8.618;2023-05-23T06:47:32;13.50;;;11.93;;
3217;SDS011;1621;49.702;8.618;2023-05-23T06:49:59;15.57;;;13.53;;
3217;SDS011;1621;49.702;8.618;2023-05-23T06:52:25;15.17;;;13.00;;
3217;SDS011;1621;49.702;8.618;2023-05-23T06:54:52;15.93;;;12.30;;
3217;SDS011;1621;49.702;8.618;2023-05-23T06:57:19;14.63;;;12.70;;
3217;SDS011;1621;49.702;8.618;2023-05-23T06:59:45;13.00;;;11.60;;
3217;SDS011;1621;49.702;8.618;2023-05-23T07:02:11;13.20;;;11.80;;
3217;SDS011;1621;49.702;8.618;2023-05-23T07:04:38;16.13;;;13.70;;
3217;SDS011;1621;49.702;8.618;2023-05-23T07:07:04;13.60;;;11.70;;
3217;SDS011;1621;49.702;8.618;2023-05-23T07:09:31;13.07;;;11.67;;
3217;SDS011;1621;49.702;8.618;2023-05-23T07:11:58;15.40;;;12.90;;
3217;SDS011;1621;49.702;8.618;2023-05-23T07:14:24;14.60;;;13.00;;
3217;SDS011;1621;49.702;8.618;2023-05-23T07:16:51;14.17;;;12.07;;
3217;SDS011;1621;49.702;8.618;2023-05-23T07:19:17;15.13;;;12.00;;
3217;SDS011;1621;49.702;8.618;2023-05-23T07:21:43;14.37;;;11.40;;
3217;SDS011;1621;49.702;8.618;2023-05-23T07:24:09;13.90;;;11.33;;
3217;SDS011;1621;49.702;8.618;2023-05-23T07:26:35;13.07;;;10.80;;
3217;SDS011;1621;49.702;8.618;2023-05-23T07:29:03;13.97;;;10.80;;
3217;SDS011;1621;49.702;8.618;2023-05-23T07:31:29;13.60;;;10.67;;
3217;SDS011;1621;49.702;8.618;2023-05-23T07:33:56;10.60;;;9.07;;
3217;SDS011;1621;49.702;8.618;2023-05-23T07:36:22;12.87;;;9.80;;
3217;SDS011;1621;49.702;8.618;2023-05-23T07:38:48;13.23;;;9.50;;
3217;SDS011;1621;49.702;8.618;2023-05-23T07:41:15;10.33;;;9.30;;
3217;SDS011;1621;49.702;8.618;2023-05-23T07:43:41;10.23;;;8.90;;
3217;SDS011;1621;49.702;8.618;2023-05-23T07:46:09;11.40;;;8.17;;
3217;SDS011;1621;49.702;8.618;2023-05-23T07:48:35;9.80;;;8.80;;
3217;SDS011;1621;49.702;8.618;2023-05-23T07:51:01;13.10;;;7.87;;
3217;SDS011;1621;49.702;8.618;2023-05-23T07:53:28;10.23;;;8.77;;
3217;SDS011;1621;49.702;8.618;2023-05-23T07:55:54;9.53;;;8.27;;
3217;SDS011;1621;49.702;8.618;2023-05-23T07:58:20;9.57;;;8.57;;
3217;SDS011;1621;49.702;8.618;2023-05-23T08:00:47;10.50;;;9.10;;
3217;SDS011;1621;49.702;8.618;2023-05-23T08:03:15;10.83;;;9.20;;
3217;SDS011;1621;49.702;8.618;2023-05-23T08:05:43;10.73;;;8.90;;
3217;SDS011;1621;49.702;8.618;2023-05-23T08:08:09;9.93;;;8.47;;
3217;SDS011;1621;49.702;8.618;2023-05-23T08:10:35;9.70;;;8.57;;
3217;SDS011;1621;49.702;8.618;2023-05-23T08:13:03;10.50;;;9.40;;
3217;SDS011;1621;49.702;8.618;2023-05-23T08:15:30;10.70;;;9.00;;
3217;SDS011;1621;49.702;8.618;2023-05-23T08:17:57;10.30;;;8.70;;
3217;SDS011;1621;49.702;8.618;2023-05-23T08:20:25;10.87;;;9.50;;
3217;SDS011;1621;49.702;8.618;2023-05-23T08:22:55;12.53;;;9.10;;
3217;SDS011;1621;49.702;8.618;2023-05-23T08:25:22;9.30;;;8.30;;
3217;SDS011;1621;49.702;8.618;2023-05-23T08:27:48;10.03;;;8.70;;
3217;SDS011;1621;49.702;8.618;2023-05-23T08:30:14;10.53;;;8.73;;
3217;SDS011;1621;49.702;8.618;2023-05-23T08:32:41;10.33;;;8.30;;
3217;SDS011;1621;49.702;8.618;2023-05-23T08:35:07;9.53;;;8.40;;
3217;SDS011;1621;49.702;8.618;2023-05-23T08:37:35;8.00;;;7.20;;
3217;SDS011;1621;49.702;8.618;2023-05-23T08:40:01;8.80;;;7.37;;
3217;SDS011;1621;49.702;8.618;2023-05-23T08:42:27;9.20;;;7.47;;
3217;SDS011;1621;49.702;8.618;2023-05-23T08:44:54;10.10;;;7.47;;
3217;SDS011;1621;49.702;8.618;2023-05-23T08:47:20;8.67;;;7.70;;
3217;SDS011;1621;49.702;8.618;2023-05-23T08:49:46;8.77;;;6.80;;
3217;SDS011;1621;49.702;8.618;2023-05-23T08:52:13;7.53;;;6.80;;
3217;SDS011;1621;49.702;8.618;2023-05-23T08:54:44;7.40;;;6.57;;
3217;SDS011;1621;49.702;8.618;2023-05-23T08:57:11;6.97;;;6.27;;
3217;SDS011;1621;49.702;8.618;2023-05-23T08:59:38;8.07;;;7.27;;
3217;SDS011;1621;49.702;8.618;2023-05-23T09:02:05;5.60;;;5.00;;
3217;SDS011;1621;49.702;8.618;2023-05-23T09:04:33;5.43;;;4.80;;
3217;SDS011;1621;49.702;8.618;2023-05-23T09:07:00;5.70;;;5.10;;
3217;SDS011;1621;49.702;8.618;2023-05-23T09:09:27;5.87;;;5.27;;
3217;SDS011;1621;49.702;8.618;2023-05-23T09:11:55;8.20;;;5.50;;
3217;SDS011;1621;49.702;8.618;2023-05-23T09:14:23;5.73;;;5.03;;
3217;SDS011;1621;49.702;8.618;2023-05-23T09:16:50;6.23;;;4.90;;
3217;SDS011;1621;49.702;8.618;2023-05-23T09:19:17;6.60;;;4.90;;
3217;SDS011;1621;49.702;8.618;2023-05-23T09:21:43;6.13;;;4.80;;
3217;SDS011;1621;49.702;8.618;2023-05-23T09:24:09;5.93;;;5.30;;
3217;SDS011;1621;49.702;8.618;2023-05-23T09:26:36;6.80;;;5.07;;
3217;SDS011;1621;49.702;8.618;2023-05-23T09:29:05;7.10;;;4.97;;
3217;SDS011;1621;49.702;8.618;2023-05-23T09:31:31;7.37;;;5.20;;
3217;SDS011;1621;49.702;8.618;2023-05-23T09:33:58;6.70;;;5.20;;
3217;SDS011;1621;49.702;8.618;2023-05-23T09:36:26;7.20;;;4.83;;
3217;SDS011;1621;49.702;8.618;2023-05-23T09:38:53;5.97;;;4.47;;
3217;SDS011;1621;49.702;8.618;2023-05-23T09:41:19;6.53;;;5.27;;
3217;SDS011;1621;49.702;8.618;2023-05-23T09:43:49;5.70;;;4.70;;
3217;SDS011;1621;49.702;8.618;2023-05-23T09:46:17;6.00;;;4.60;;
3217;SDS011;1621;49.702;8.618;2023-05-23T09:48:45;7.80;;;5.03;;
3217;SDS011;1621;49.702;8.618;2023-05-23T09:51:11;6.10;;;5.10;;
3217;SDS011;1621;49.702;8.618;2023-05-23T09:53:37;7.57;;;5.40;;
3217;SDS011;1621;49.702;8.618;2023-05-23T09:56:04;5.90;;;4.77;;
3217;SDS011;1621;49.702;8.618;2023-05-23T09:58:30;6.60;;;4.53;;
3217;SDS011;1621;49.702;8.618;2023-05-23T10:00:58;4.80;;;4.13;;
3217;SDS011;1621;49.702;8.618;2023-05-23T10:03:30;6.03;;;5.00;;
3217;SDS011;1621;49.702;8.618;2023-05-23T10:05:58;5.03;;;4.53;;
3217;SDS011;1621;49.702;8.618;2023-05-23T10:08:28;6.30;;;4.83;;
3217;SDS011;1621;49.702;8.618;2023-05-23T10:11:27;5.27;;;4.50;;
3217;SDS011;1621;49.702;8.618;2023-05-23T10:14:02;5.03;;;4.23;;
3217;SDS011;1621;49.702;8.618;2023-05-23T10:16:33;6.17;;;4.80;;
3217;SDS011;1621;49.702;8.618;2023-05-23T10:19:08;4.70;;;4.00;;
3217;SDS011;1621;49.702;8.618;2023-05-23T10:21:37;5.20;;;4.00;;
3217;SDS011;1621;49.702;8.618;2023-05-23T10:24:05;5.80;;;4.07;;
3217;SDS011;1621;49.702;8.618;2023-05-23T10:26:32;4.50;;;3.73;;
3217;SDS011;1621;49.702;8.618;2023-05-23T10:28:58;5.13;;;4.10;;
3217;SDS011;1621;49.702;8.618;2023-05-23T10:31:25;4.30;;;3.60;;
3217;SDS011;1621;49.702;8.618;2023-05-23T10:33:54;5.83;;;4.60;;
3217;SDS011;1621;49.702;8.618;2023-05-23T10:36:24;4.60;;;3.93;;
3217;SDS011;1621;49.702;8.618;2023-05-23T10:38:54;4.17;;;3.70;;
3217;SDS011;1621;49.702;8.618;2023-05-23T10:41:24;4.87;;;3.70;;
3217;SDS011;1621;49.702;8.618;2023-05-23T10:43:54;5.10;;;4.17;;
3217;SDS011;1621;49.702;8.618;2023-05-23T10:46:22;6.67;;;4.23;;
3217;SDS011;1621;49.702;8.618;2023-05-23T10:48:52;5.90;;;4.03;;
3217;SDS011;1621;49.702;8.618;2023-05-23T10:51:19;6.30;;;4.27;;
3217;SDS011;1621;49.702;8.618;2023-05-23T10:53:51;5.50;;;4.30;;
3217;SDS011;1621;49.702;8.618;2023-05-23T10:56:19;6.43;;;4.20;;
3217;SDS011;1621;49.702;8.618;2023-05-23T10:58:46;7.03;;;4.50;;
3217;SDS011;1621;49.702;8.618;2023-05-23T11:01:17;8.73;;;4.33;;
3217;SDS011;1621;49.702;8.618;2023-05-23T11:03:50;6.03;;;4.47;;
3217;SDS011;1621;49.702;8.618;2023-05-23T11:06:30;5.20;;;3.90;;
3217;SDS011;1621;49.702;8.618;2023-05-23T11:09:02;6.00;;;4.40;;
3217;SDS011;1621;49.702;8.618;2023-05-23T11:14:10;5.73;;;4.07;;
3217;SDS011;1621;49.702;8.618;2023-05-23T11:16:39;5.63;;;4.60;;
3217;SDS011;1621;49.702;8.618;2023-05-23T11:19:21;5.50;;;4.40;;
3217;SDS011;1621;49.702;8.618;2023-05-23T11:21:51;4.93;;;4.07;;
3217;SDS011;1621;49.702;8.618;2023-05-23T11:24:19;6.03;;;4.00;;
3217;SDS011;1621;49.702;8.618;2023-05-23T11:26:51;6.27;;;4.40;;
3217;SDS011;1621;49.702;8.618;2023-05-23T11:29:18;5.50;;;4.90;;
3217;SDS011;1621;49.702;8.618;2023-05-23T11:31:45;6.97;;;4.87;;
3217;SDS011;1621;49.702;8.618;2023-05-23T11:34:11;5.80;;;4.60;;
3217;SDS011;1621;49.702;8.618;2023-05-23T11:36:38;6.03;;;4.90;;
3217;SDS011;1621;49.702;8.618;2023-05-23T11:39:04;5.17;;;4.60;;
3217;SDS011;1621;49.702;8.618;2023-05-23T11:41:32;6.97;;;4.97;;
3217;SDS011;1621;49.702;8.618;2023-05-23T11:43:59;5.60;;;4.97;;
3217;SDS011;1621;49.702;8.618;2023-05-23T11:46:26;8.13;;;5.50;;
3217;SDS011;1621;49.702;8.618;2023-05-23T11:48:52;7.80;;;5.57;;
3217;SDS011;1621;49.702;8.618;2023-05-23T11:51:18;13.13;;;5.83;;
3217;SDS011;1621;49.702;8.618;2023-05-23T11:53:45;7.23;;;6.40;;
3217;SDS011;1621;49.702;8.618;2023-05-23T11:56:13;13.10;;;6.73;;
3217;SDS011;1621;49.702;8.618;2023-05-23T11:58:41;8.80;;;6.90;;
3217;SDS011;1621;49.702;8.618;2023-05-23T12:01:10;8.43;;;6.07;;
3217;SDS011;1621;49.702;8.618;2023-05-23T12:03:43;7.47;;;6.40;;
3217;SDS011;1621;49.702;8.618;2023-05-23T12:06:10;7.33;;;5.90;;
3217;SDS011;1621;49.702;8.618;2023-05-23T12:08:36;9.33;;;5.90;;
3217;SDS011;1621;49.702;8.618;2023-05-23T12:11:02;7.70;;;6.90;;
3217;SDS011;1621;49.702;8.618;2023-05-23T12:13:28;7.60;;;6.40;;
3217;SDS011;1621;49.702;8.618;2023-05-23T12:15:56;7.40;;;5.87;;
3217;SDS011;1621;49.702;8.618;2023-05-23T12:18:24;11.37;;;6.47;;
3217;SDS011;1621;49.702;8.618;2023-05-23T12:20:50;10.93;;;5.87;;
3217;SDS011;1621;49.702;8.618;2023-05-23T12:23:17;6.70;;;5.37;;
3217;SDS011;1621;49.702;8.618;2023-05-23T12:25:43;7.80;;;5.57;;
3217;SDS011;1621;49.702;8.618;2023-05-23T12:28:09;10.97;;;6.30;;
3217;SDS011;1621;49.702;8.618;2023-05-23T12:30:40;6.57;;;5.03;;
3217;SDS011;1621;49.702;8.618;2023-05-23T12:33:08;8.93;;;6.20;;
3217;SDS011;1621;49.702;8.618;2023-05-23T12:35:35;6.90;;;6.20;;
3217;SDS011;1621;49.702;8.618;2023-05-23T12:38:04;8.43;;;5.97;;
3217;SDS011;1621;49.702;8.618;2023-05-23T12:40:30;11.83;;;7.00;;
3217;SDS011;1621;49.702;8.618;2023-05-23T12:42:57;7.57;;;5.57;;
3217;SDS011;1621;49.702;8.618;2023-05-23T12:45:25;8.73;;;5.73;;
3217;SDS011;1621;49.702;8.618;2023-05-23T12:47:55;7.50;;;5.60;;
3217;SDS011;1621;49.702;8.618;2023-05-23T12:50:23;5.83;;;5.13;;
3217;SDS011;1621;49.702;8.618;2023-05-23T12:52:49;6.97;;;5.67;;
3217;SDS011;1621;49.702;8.618;2023-05-23T12:55:16;8.10;;;5.67;;
3217;SDS011;1621;49.702;8.618;2023-05-23T12:57:42;11.40;;;5.83;;
3217;SDS011;1621;49.702;8.618;2023-05-23T13:00:09;7.50;;;5.70;;
3217;SDS011;1621;49.702;8.618;2023-05-23T13:02:36;7.30;;;4.67;;
3217;SDS011;1621;49.702;8.618;2023-05-23T13:05:03;7.93;;;6.20;;
3217;SDS011;1621;49.702;8.618;2023-05-23T13:07:31;10.30;;;6.07;;
3217;SDS011;1621;49.702;8.618;2023-05-23T13:09:57;8.83;;;5.60;;
3217;SDS011;1621;49.702;8.618;2023-05-23T13:12:23;7.97;;;5.13;;
3217;SDS011;1621;49.702;8.618;2023-05-23T13:14:50;7.07;;;5.20;;
3217;SDS011;1621;49.702;8.618;2023-05-23T13:17:16;6.40;;;5.40;;
3217;SDS011;1621;49.702;8.618;2023-05-23T13:19:42;8.40;;;5.70;;
3217;SDS011;1621;49.702;8.618;2023-05-23T13:22:08;6.13;;;5.10;;
3217;SDS011;1621;49.702;8.618;2023-05-23T13:24:36;5.80;;;4.80;;
3217;SDS011;1621;49.702;8.618;2023-05-23T13:27:03;8.30;;;4.67;;
3217;SDS011;1621;49.702;8.618;2023-05-23T13:29:29;8.00;;;5.90;;
3217;SDS011;1621;49.702;8.618;2023-05-23T13:31:56;6.73;;;4.37;;
3217;SDS011;1621;49.702;8.618;2023-05-23T13:34:22;5.47;;;4.43;;
3217;SDS011;1621;49.702;8.618;2023-05-23T13:36:48;5.17;;;3.93;;
3217;SDS011;1621;49.702;8.618;2023-05-23T13:39:14;5.90;;;4.83;;
3217;SDS011;1621;49.702;8.618;2023-05-23T13:41:42;7.27;;;4.23;;
3217;SDS011;1621;49.702;8.618;2023-05-23T13:44:08;5.37;;;3.53;;
3217;SDS011;1621;49.702;8.618;2023-05-23T13:46:34;6.00;;;3.50;;
3217;SDS011;1621;49.702;8.618;2023-05-23T13:49:01;5.60;;;3.60;;
3217;SDS011;1621;49.702;8.618;2023-05-23T13:51:27;5.30;;;3.60;;
3217;SDS011;1621;49.702;8.618;2023-05-23T13:53:53;4.20;;;3.40;;
3217;SDS011;1621;49.702;8.618;2023-05-23T13:56:19;5.40;;;2.87;;
3217;SDS011;1621;49.702;8.618;2023-05-23T13:58:47;5.27;;;3.23;;
3217;SDS011;1621;49.702;8.618;2023-05-23T14:01:13;4.67;;;2.77;;
3217;SDS011;1621;49.702;8.618;2023-05-23T14:03:40;3.90;;;2.63;;
3217;SDS011;1621;49.702;8.618;2023-05-23T14:06:07;4.03;;;2.30;;
3217;SDS011;1621;49.702;8.618;2023-05-23T14:08:33;3.73;;;2.37;;
3217;SDS011;1621;49.702;8.618;2023-05-23T14:10:59;5.43;;;2.87;;
3217;SDS011;1621;49.702;8.618;2023-05-23T14:13:25;6.00;;;2.80;;
3217;SDS011;1621;49.702;8.618;2023-05-23T14:15:53;3.83;;;2.97;;
3217;SDS011;1621;49.702;8.618;2023-05-23T14:18:19;4.87;;;2.93;;
3217;SDS011;1621;49.702;8.618;2023-05-23T14:20:45;5.07;;;2.97;;
3217;SDS011;1621;49.702;8.618;2023-05-23T14:23:12;10.77;;;3.40;;
3217;SDS011;1621;49.702;8.618;2023-05-23T14:25:38;5.20;;;3.60;;
3217;SDS011;1621;49.702;8.618;2023-05-23T14:28:04;5.30;;;4.33;;
3217;SDS011;1621;49.702;8.618;2023-05-23T14:30:30;7.83;;;5.30;;
3217;SDS011;1621;49.702;8.618;2023-05-23T14:32:58;6.27;;;4.73;;
3217;SDS011;1621;49.702;8.618;2023-05-23T14:35:24;6.50;;;4.60;;
3217;SDS011;1621;49.702;8.618;2023-05-23T14:37:50;6.43;;;5.00;;
3217;SDS011;1621;49.702;8.618;2023-05-23T14:40:17;6.03;;;4.00;;
3217;SDS011;1621;49.702;8.618;2023-05-23T14:42:43;8.30;;;4.00;;
3217;SDS011;1621;49.702;8.618;2023-05-23T14:45:10;5.87;;;4.73;;
3217;SDS011;1621;49.702;8.618;2023-05-23T14:47:36;8.77;;;4.97;;
3217;SDS011;1621;49.702;8.618;2023-05-23T14:50:04;6.70;;;5.10;;
3217;SDS011;1621;49.702;8.618;2023-05-23T14:52:31;9.03;;;4.50;;
3217;SDS011;1621;49.702;8.618;2023-05-23T14:54:57;6.83;;;4.53;;
3217;SDS011;1621;49.702;8.618;2023-05-23T14:57:25;6.57;;;5.00;;
3217;SDS011;1621;49.702;8.618;2023-05-23T14:59:51;6.07;;;4.43;;
3217;SDS011;1621;49.702;8.618;2023-05-23T15:02:17;4.73;;;3.70;;